Latest Weather Observations for Frankston Beach

IDV60801

Issued at 12:32 am EST Saturday 24 April 2021 (issued every 10 minutes, with the page automatically refreshed every 10 minutes)

About weather observations | Map of weather stations | Latest weather observations for VIC | Other Formats
Station Details ID: 086371 Name: FRANKSTON BEACH Lat: -38.15 Lon: 145.12 Height: 6.0 m
Data from the previous 72 hours. | See also: Recent months at Frankston Beach
Date/Time
EST
Temp
°C
App
Temp
°C
Dew
Point
°C
Rel
Hum
%
Delta-T
°C
Wind Press
QNH
hPa
Press
MSL
hPa
Rain since
9am
mm
Dir  Spd
km/h
Gust
km/h
Spd
kts
Gust
kts
24/12:30am - - - - - WNW 24 28 13 15 - - -
24/12:00am - - - - - WNW 24 28 13 15 - - -
 
Date/Time
EST
Temp
°C
App
Temp
°C
Dew
Point
°C
Rel
Hum
%
Delta-T
°C
Wind Press
QNH
hPa
Press
MSL
hPa
Rain since
9am
mm
Dir  Spd
km/h
Gust
km/h
Spd
kts
Gust
kts
23/11:30pm - - - - - WNW 24 28 13 15 - - -
23/11:00pm - - - - - W 26 28 14 15 - - -
23/10:30pm - - - - - W 24 30 13 16 - - -
23/10:00pm - - - - - W 28 33 15 18 - - -
23/09:30pm - - - - - WNW 26 30 14 16 - - -
23/09:00pm - - - - - W 22 28 12 15 - - -
23/08:30pm - - - - - W 24 28 13 15 - - -
23/08:00pm - - - - - W 26 28 14 15 - - -
23/07:30pm - - - - - W 28 32 15 17 - - -
23/07:00pm - - - - - W 24 28 13 15 - - -
23/06:30pm - - - - - W 20 26 11 14 - - -
23/06:00pm - - - - - W 13 17 7 9 - - -
23/05:30pm - - - - - W 13 15 7 8 - - -
23/05:00pm - - - - - WSW 15 17 8 9 - - -
23/04:30pm - - - - - SW 20 28 11 15 - - -
23/04:00pm - - - - - WSW 22 28 12 15 - - -
23/03:30pm - - - - - SW 20 28 11 15 - - -
23/03:00pm - - - - - WSW 28 33 15 18 - - -
23/02:30pm - - - - - W 26 30 14 16 - - -
23/02:00pm - - - - - W 20 26 11 14 - - -
23/01:30pm - - - - - W 22 26 12 14 - - -
23/01:00pm - - - - - WNW 28 32 15 17 - - -
23/12:30pm - - - - - W 28 33 15 18 - - -
23/12:00pm - - - - - W 30 33 16 18 - - -
23/11:30am - - - - - W 30 37 16 20 - - -
23/11:00am - - - - - WNW 33 39 18 21 - - -
23/10:30am - - - - - WNW 28 35 15 19 - - -
23/10:00am - - - - - WNW 30 35 16 19 - - -
23/09:30am - - - - - WNW 33 39 18 21 - - -
23/09:00am - - - - - W 35 43 19 23 - - -
23/08:30am - - - - - W 35 41 19 22 - - -
23/08:00am - - - - - WNW 35 41 19 22 - - -
23/07:30am - - - - - WNW 30 37 16 20 - - -
23/07:00am - - - - - W 33 39 18 21 - - -
23/06:30am - - - - - WNW 30 35 16 19 - - -
23/06:00am - - - - - WNW 32 39 17 21 - - -
23/05:30am - - - - - WNW 32 37 17 20 - - -
23/05:00am - - - - - WNW 32 37 17 20 - - -
23/04:30am - - - - - W 28 33 15 18 - - -
23/04:00am - - - - - WNW 33 37 18 20 - - -
23/03:30am - - - - - W 35 43 19 23 - - -
23/03:00am - - - - - WNW 33 41 18 22 - - -
23/02:30am - - - - - WNW 32 35 17 19 - - -
23/02:00am - - - - - WNW 32 37 17 20 - - -
23/01:30am - - - - - W 35 48 19 26 - - -
23/01:00am - - - - - WNW 37 41 20 22 - - -
23/12:30am - - - - - WNW 33 43 18 23 - - -
23/12:00am - - - - - WNW 33 43 18 23 - - -
 
Date/Time
EST
Temp
°C
App
Temp
°C
Dew
Point
°C
Rel
Hum
%
Delta-T
°C
Wind Press
QNH
hPa
Press
MSL
hPa
Rain since
9am
mm
Dir  Spd
km/h
Gust
km/h
Spd
kts
Gust
kts
22/11:30pm - - - - - WNW 33 39 18 21 - - -
22/11:00pm - - - - - WNW 37 46 20 25 - - -
22/10:30pm - - - - - WNW 37 44 20 24 - - -
22/10:00pm - - - - - WNW 35 41 19 22 - - -
22/09:30pm - - - - - W 32 37 17 20 - - -
22/09:00pm - - - - - WNW 32 39 17 21 - - -
22/08:30pm - - - - - WNW 30 37 16 20 - - -
22/08:00pm - - - - - WNW 32 37 17 20 - - -
22/07:30pm - - - - - WNW 28 33 15 18 - - -
22/07:00pm - - - - - WNW 30 35 16 19 - - -
22/06:30pm - - - - - WNW 33 41 18 22 - - -
22/06:00pm - - - - - WNW 33 44 18 24 - - -
22/05:30pm - - - - - WNW 32 37 17 20 - - -
22/05:00pm - - - - - WNW 33 39 18 21 - - -
22/04:30pm - - - - - WNW 35 41 19 22 - - -
22/04:00pm - - - - - W 28 32 15 17 - - -
22/03:30pm - - - - - WSW 30 33 16 18 - - -
22/03:00pm - - - - - W 32 41 17 22 - - -
22/02:30pm - - - - - WNW 28 32 15 17 - - -
22/02:00pm - - - - - WNW 28 33 15 18 - - -
22/01:30pm - - - - - W 32 37 17 20 - - -
22/01:00pm - - - - - W 30 35 16 19 - - -
22/12:30pm - - - - - WNW 33 37 18 20 - - -
22/12:00pm - - - - - WNW 32 37 17 20 - - -
22/11:30am - - - - - WNW 30 35 16 19 - - -
22/11:00am - - - - - WNW 32 39 17 21 - - -
22/10:30am - - - - - WNW 33 37 18 20 - - -
22/10:00am - - - - - NW 30 37 16 20 - - -
22/09:30am - - - - - NW 32 37 17 20 - - -
22/09:00am - - - - - NW 33 39 18 21 - - -
22/08:30am - - - - - NW 33 37 18 20 - - -
22/08:00am - - - - - NW 30 37 16 20 - - -
22/07:30am - - - - - NW 32 39 17 21 - - -
22/07:00am - - - - - NW 32 37 17 20 - - -
22/06:30am - - - - - NW 33 39 18 21 - - -
22/06:00am - - - - - NW 32 37 17 20 - - -
22/05:30am - - - - - NW 32 41 17 22 - - -
22/05:00am - - - - - NW 33 41 18 22 - - -
22/04:30am - - - - - NW 32 37 17 20 - - -
22/04:00am - - - - - NW 33 41 18 22 - - -
22/03:30am - - - - - NW 33 39 18 21 - - -
22/03:00am - - - - - NNW 32 37 17 20 - - -
22/02:30am - - - - - NNW 28 33 15 18 - - -
22/02:00am - - - - - NNW 32 35 17 19 - - -
22/01:30am - - - - - NNW 30 35 16 19 - - -
22/01:00am - - - - - NNW 28 33 15 18 - - -
22/12:30am - - - - - NNW 30 37 16 20 - - -
22/12:00am - - - - - NNW 28 32 15 17 - - -
 
Date/Time
EST
Temp
°C
App
Temp
°C
Dew
Point
°C
Rel
Hum
%
Delta-T
°C
Wind Press
QNH
hPa
Press
MSL
hPa
Rain since
9am
mm
Dir  Spd
km/h
Gust
km/h
Spd
kts
Gust
kts
21/11:30pm - - - - - NW 26 32 14 17 - - -
21/11:00pm - - - - - NW 28 32 15 17 - - -
21/10:30pm - - - - - NW 28 32 15 17 - - -
21/10:00pm - - - - - NW 24 30 13 16 - - -
21/09:30pm - - - - - NW 26 32 14 17 - - -
21/09:00pm - - - - - NW 26 32 14 17 - - -
21/08:30pm - - - - - WNW 24 30 13 16 - - -
21/08:00pm - - - - - WNW 24 30 13 16 - - -
21/07:30pm - - - - - WNW 22 28 12 15 - - -
21/07:00pm - - - - - WNW 26 30 14 16 - - -
21/06:30pm - - - - - W 32 37 17 20 - - -
21/06:00pm - - - - - WNW 28 32 15 17 - - -
21/05:30pm - - - - - W 26 33 14 18 - - -
21/05:00pm - - - - - W 26 32 14 17 - - -
21/04:30pm - - - - - W 20 26 11 14 - - -
21/04:00pm - - - - - W 24 30 13 16 - - -
21/03:30pm - - - - - W 22 30 12 16 - - -
21/03:00pm - - - - - WNW 15 20 8 11 - - -
21/02:30pm - - - - - W 17 22 9 12 - - -
21/02:00pm - - - - - WNW 17 22 9 12 - - -
21/01:30pm - - - - - W 19 26 10 14 - - -
21/01:00pm - - - - - W 19 26 10 14 - - -
21/12:30pm - - - - - WNW 17 20 9 11 - - -
21/12:00pm - - - - - WNW 19 24 10 13 - - -
21/11:30am - - - - - W 13 19 7 10 - - -
21/11:00am - - - - - W 13 17 7 9 - - -
21/10:30am - - - - - N 7 13 4 7 - - -
21/10:00am - - - - - N 4 9 2 5 - - -
21/09:30am - - - - - E 6 9 3 5 - - -
21/09:00am - - - - - ENE 11 13 6 7 - - -
21/08:30am - - - - - E 11 15 6 8 - - -
21/08:00am - - - - - ESE 11 13 6 7 - - -
21/07:30am - - - - - E 7 11 4 6 - - -
21/07:00am - - - - - E 9 11 5 6 - - -
21/06:30am - - - - - E 9 11 5 6 - - -
21/06:00am - - - - - SSE 9 11 5 6 - - -
21/05:30am - - - - - S 11 13 6 7 - - -
21/05:00am - - - - - S 11 13 6 7 - - -
21/04:30am - - - - - S 11 13 6 7 - - -
21/04:00am - - - - - SSE 17 24 9 13 - - -
21/03:30am - - - - - S 13 17 7 9 - - -
21/03:00am - - - - - S 11 11 6 6 - - -
21/02:30am - - - - - S 7 11 4 6 - - -
21/02:00am - - - - - SSW 17 24 9 13 - - -
21/01:30am - - - - - S 9 11 5 6 - - -
21/01:00am - - - - - S 9 11 5 6 - - -

Other formats

Comma delimited format used in spreadsheet applications
http://www.bom.gov.au/fwo/IDV60801/IDV60801.94871.axf

JavaScript Object Notation format (JSON) in row-major order
http://www.bom.gov.au/fwo/IDV60801/IDV60801.94871.json

Data quality

Most of these data are generated automatically and are frequently updated. Quality checks on data are not normally performed. It is possible for incorrect values to appear. Refer to information at About Latest Weather Observations and please check the disclaimer before using these data.